sensor_id;sensor_type;location;lat;lon;timestamp;P1;durP1;ratioP1;P2;durP2;ratioP2
66802;SDS011;53705;49.860;8.744;2024-02-26T00:01:33;2.78;;;0.10;;
66802;SDS011;53705;49.860;8.744;2024-02-26T00:04:02;2.15;;;1.10;;
66802;SDS011;53705;49.860;8.744;2024-02-26T00:06:30;2.42;;;0.15;;
66802;SDS011;53705;49.860;8.744;2024-02-26T00:08:59;2.17;;;0.90;;
66802;SDS011;53705;49.860;8.744;2024-02-26T00:11:27;1.90;;;0.25;;
66802;SDS011;53705;49.860;8.744;2024-02-26T00:13:55;2.65;;;0.70;;
66802;SDS011;53705;49.860;8.744;2024-02-26T00:16:22;2.67;;;0.52;;
66802;SDS011;53705;49.860;8.744;2024-02-26T00:18:50;1.77;;;0.50;;
66802;SDS011;53705;49.860;8.744;2024-02-26T00:21:20;1.80;;;0.60;;
66802;SDS011;53705;49.860;8.744;2024-02-26T00:23:48;1.40;;;0.32;;
66802;SDS011;53705;49.860;8.744;2024-02-26T00:26:16;3.80;;;0.80;;
66802;SDS011;53705;49.860;8.744;2024-02-26T00:28:44;2.10;;;0.63;;
66802;SDS011;53705;49.860;8.744;2024-02-26T00:31:12;1.52;;;0.75;;
66802;SDS011;53705;49.860;8.744;2024-02-26T00:33:40;1.50;;;0.28;;
66802;SDS011;53705;49.860;8.744;2024-02-26T00:36:08;3.75;;;0.17;;
66802;SDS011;53705;49.860;8.744;2024-02-26T00:38:37;1.35;;;0.15;;
66802;SDS011;53705;49.860;8.744;2024-02-26T00:41:06;2.22;;;0.50;;
66802;SDS011;53705;49.860;8.744;2024-02-26T00:43:34;2.13;;;0.68;;
66802;SDS011;53705;49.860;8.744;2024-02-26T00:46:01;1.05;;;0.15;;
66802;SDS011;53705;49.860;8.744;2024-02-26T00:48:29;3.05;;;0.20;;
66802;SDS011;53705;49.860;8.744;2024-02-26T00:50:58;1.48;;;0.17;;
66802;SDS011;53705;49.860;8.744;2024-02-26T00:53:26;1.70;;;0.45;;
66802;SDS011;53705;49.860;8.744;2024-02-26T00:55:56;1.65;;;0.22;;
66802;SDS011;53705;49.860;8.744;2024-02-26T00:58:25;2.00;;;0.40;;
66802;SDS011;53705;49.860;8.744;2024-02-26T01:00:53;4.50;;;0.47;;
66802;SDS011;53705;49.860;8.744;2024-02-26T01:03:21;2.38;;;0.40;;
66802;SDS011;53705;49.860;8.744;2024-02-26T01:05:49;1.40;;;0.38;;
66802;SDS011;53705;49.860;8.744;2024-02-26T01:08:18;2.13;;;0.50;;
66802;SDS011;53705;49.860;8.744;2024-02-26T01:10:46;1.65;;;0.45;;
66802;SDS011;53705;49.860;8.744;2024-02-26T01:13:15;1.90;;;1.52;;
66802;SDS011;53705;49.860;8.744;2024-02-26T01:15:43;3.67;;;0.95;;
66802;SDS011;53705;49.860;8.744;2024-02-26T01:18:11;4.40;;;0.82;;
66802;SDS011;53705;49.860;8.744;2024-02-26T01:20:40;1.90;;;0.30;;
66802;SDS011;53705;49.860;8.744;2024-02-26T01:23:07;2.40;;;0.65;;
66802;SDS011;53705;49.860;8.744;2024-02-26T01:25:35;2.22;;;0.43;;
66802;SDS011;53705;49.860;8.744;2024-02-26T01:28:04;2.13;;;0.28;;
66802;SDS011;53705;49.860;8.744;2024-02-26T01:30:33;1.58;;;0.32;;
66802;SDS011;53705;49.860;8.744;2024-02-26T01:33:01;1.98;;;0.47;;
66802;SDS011;53705;49.860;8.744;2024-02-26T01:35:30;1.10;;;0.28;;
66802;SDS011;53705;49.860;8.744;2024-02-26T01:37:57;1.30;;;0.32;;
66802;SDS011;53705;49.860;8.744;2024-02-26T01:40:26;1.75;;;0.60;;
66802;SDS011;53705;49.860;8.744;2024-02-26T01:42:54;1.63;;;0.77;;
66802;SDS011;53705;49.860;8.744;2024-02-26T01:45:22;1.63;;;0.45;;
66802;SDS011;53705;49.860;8.744;2024-02-26T01:47:53;2.50;;;0.60;;
66802;SDS011;53705;49.860;8.744;2024-02-26T01:50:21;1.27;;;0.15;;
66802;SDS011;53705;49.860;8.744;2024-02-26T01:52:50;1.30;;;0.77;;
66802;SDS011;53705;49.860;8.744;2024-02-26T01:55:18;1.48;;;0.32;;
66802;SDS011;53705;49.860;8.744;2024-02-26T01:57:46;2.13;;;0.88;;
66802;SDS011;53705;49.860;8.744;2024-02-26T02:00:15;2.08;;;0.73;;
66802;SDS011;53705;49.860;8.744;2024-02-26T02:02:44;4.00;;;0.88;;
66802;SDS011;53705;49.860;8.744;2024-02-26T02:05:15;3.75;;;0.50;;
66802;SDS011;53705;49.860;8.744;2024-02-26T02:07:44;2.13;;;0.40;;
66802;SDS011;53705;49.860;8.744;2024-02-26T02:10:13;2.17;;;0.40;;
66802;SDS011;53705;49.860;8.744;2024-02-26T02:12:41;4.25;;;0.50;;
66802;SDS011;53705;49.860;8.744;2024-02-26T02:15:08;1.80;;;0.43;;
66802;SDS011;53705;49.860;8.744;2024-02-26T02:17:36;2.58;;;0.85;;
66802;SDS011;53705;49.860;8.744;2024-02-26T02:20:07;2.92;;;0.50;;
66802;SDS011;53705;49.860;8.744;2024-02-26T02:22:37;1.17;;;0.40;;
66802;SDS011;53705;49.860;8.744;2024-02-26T02:25:05;4.10;;;0.32;;
66802;SDS011;53705;49.860;8.744;2024-02-26T02:31:40;3.95;;;0.80;;
66802;SDS011;53705;49.860;8.744;2024-02-26T02:34:08;1.25;;;0.20;;
66802;SDS011;53705;49.860;8.744;2024-02-26T02:36:47;2.15;;;0.73;;
66802;SDS011;53705;49.860;8.744;2024-02-26T02:39:17;4.57;;;0.98;;
66802;SDS011;53705;49.860;8.744;2024-02-26T02:41:44;1.85;;;0.30;;
66802;SDS011;53705;49.860;8.744;2024-02-26T02:44:12;3.15;;;0.88;;
66802;SDS011;53705;49.860;8.744;2024-02-26T02:46:40;2.80;;;0.47;;
66802;SDS011;53705;49.860;8.744;2024-02-26T02:49:08;4.88;;;1.10;;
66802;SDS011;53705;49.860;8.744;2024-02-26T02:51:36;3.08;;;0.57;;
66802;SDS011;53705;49.860;8.744;2024-02-26T02:54:04;3.78;;;1.13;;
66802;SDS011;53705;49.860;8.744;2024-02-26T02:56:33;5.07;;;1.42;;
66802;SDS011;53705;49.860;8.744;2024-02-26T02:59:00;4.38;;;0.75;;
66802;SDS011;53705;49.860;8.744;2024-02-26T03:01:28;3.85;;;0.73;;
66802;SDS011;53705;49.860;8.744;2024-02-26T03:03:56;4.45;;;0.63;;
66802;SDS011;53705;49.860;8.744;2024-02-26T03:06:24;5.35;;;0.85;;
66802;SDS011;53705;49.860;8.744;2024-02-26T03:08:54;2.63;;;0.88;;
66802;SDS011;53705;49.860;8.744;2024-02-26T03:11:22;3.83;;;0.35;;
66802;SDS011;53705;49.860;8.744;2024-02-26T03:13:51;1.92;;;0.17;;
66802;SDS011;53705;49.860;8.744;2024-02-26T03:16:18;1.40;;;0.25;;
66802;SDS011;53705;49.860;8.744;2024-02-26T03:18:46;1.55;;;0.30;;
66802;SDS011;53705;49.860;8.744;2024-02-26T03:21:14;2.00;;;0.65;;
66802;SDS011;53705;49.860;8.744;2024-02-26T03:23:43;1.23;;;0.60;;
66802;SDS011;53705;49.860;8.744;2024-02-26T03:26:11;2.33;;;0.55;;
66802;SDS011;53705;49.860;8.744;2024-02-26T03:28:41;2.20;;;0.57;;
66802;SDS011;53705;49.860;8.744;2024-02-26T03:31:10;2.15;;;0.52;;
66802;SDS011;53705;49.860;8.744;2024-02-26T03:33:38;1.60;;;0.30;;
66802;SDS011;53705;49.860;8.744;2024-02-26T03:36:06;1.08;;;0.28;;
66802;SDS011;53705;49.860;8.744;2024-02-26T03:38:34;2.45;;;1.10;;
66802;SDS011;53705;49.860;8.744;2024-02-26T03:41:02;1.58;;;0.13;;
66802;SDS011;53705;49.860;8.744;2024-02-26T03:43:30;2.35;;;0.35;;
66802;SDS011;53705;49.860;8.744;2024-02-26T03:45:58;4.68;;;0.25;;
66802;SDS011;53705;49.860;8.744;2024-02-26T03:48:28;1.60;;;0.55;;
66802;SDS011;53705;49.860;8.744;2024-02-26T03:50:55;1.20;;;0.32;;
66802;SDS011;53705;49.860;8.744;2024-02-26T03:53:23;1.33;;;0.43;;
66802;SDS011;53705;49.860;8.744;2024-02-26T03:55:51;2.97;;;0.17;;
66802;SDS011;53705;49.860;8.744;2024-02-26T03:58:19;2.20;;;0.68;;
66802;SDS011;53705;49.860;8.744;2024-02-26T04:00:46;1.60;;;0.22;;
66802;SDS011;53705;49.860;8.744;2024-02-26T04:03:15;1.85;;;0.43;;
66802;SDS011;53705;49.860;8.744;2024-02-26T04:05:44;1.77;;;0.40;;
66802;SDS011;53705;49.860;8.744;2024-02-26T04:08:12;1.25;;;0.55;;
66802;SDS011;53705;49.860;8.744;2024-02-26T04:10:40;1.95;;;0.47;;
66802;SDS011;53705;49.860;8.744;2024-02-26T04:13:08;1.90;;;0.65;;
66802;SDS011;53705;49.860;8.744;2024-02-26T04:15:36;1.63;;;0.45;;
66802;SDS011;53705;49.860;8.744;2024-02-26T04:18:04;2.30;;;0.13;;
66802;SDS011;53705;49.860;8.744;2024-02-26T04:20:32;2.15;;;0.30;;
66802;SDS011;53705;49.860;8.744;2024-02-26T04:23:01;3.00;;;0.65;;
66802;SDS011;53705;49.860;8.744;2024-02-26T04:25:28;1.98;;;0.47;;
66802;SDS011;53705;49.860;8.744;2024-02-26T04:27:56;1.45;;;0.43;;
66802;SDS011;53705;49.860;8.744;2024-02-26T04:30:25;2.78;;;0.73;;
66802;SDS011;53705;49.860;8.744;2024-02-26T04:32:53;6.68;;;1.33;;
66802;SDS011;53705;49.860;8.744;2024-02-26T04:35:21;3.13;;;0.55;;
66802;SDS011;53705;49.860;8.744;2024-02-26T04:37:49;2.58;;;0.75;;
66802;SDS011;53705;49.860;8.744;2024-02-26T04:40:18;4.47;;;0.95;;
66802;SDS011;53705;49.860;8.744;2024-02-26T04:42:46;5.82;;;1.13;;
66802;SDS011;53705;49.860;8.744;2024-02-26T04:45:14;4.57;;;1.05;;
66802;SDS011;53705;49.860;8.744;2024-02-26T04:47:41;3.45;;;1.17;;
66802;SDS011;53705;49.860;8.744;2024-02-26T04:50:09;2.75;;;0.80;;
66802;SDS011;53705;49.860;8.744;2024-02-26T04:52:37;2.17;;;0.90;;
66802;SDS011;53705;49.860;8.744;2024-02-26T04:55:05;2.38;;;1.13;;
66802;SDS011;53705;49.860;8.744;2024-02-26T04:57:34;3.38;;;0.93;;
66802;SDS011;53705;49.860;8.744;2024-02-26T05:00:02;1.88;;;0.73;;
66802;SDS011;53705;49.860;8.744;2024-02-26T05:02:31;3.10;;;1.52;;
66802;SDS011;53705;49.860;8.744;2024-02-26T05:05:00;3.03;;;0.52;;
66802;SDS011;53705;49.860;8.744;2024-02-26T05:07:27;2.53;;;0.77;;
66802;SDS011;53705;49.860;8.744;2024-02-26T05:09:55;3.25;;;0.57;;
66802;SDS011;53705;49.860;8.744;2024-02-26T05:12:23;3.45;;;0.93;;
66802;SDS011;53705;49.860;8.744;2024-02-26T05:14:52;2.63;;;0.80;;
66802;SDS011;53705;49.860;8.744;2024-02-26T05:17:20;4.25;;;1.42;;
66802;SDS011;53705;49.860;8.744;2024-02-26T05:19:51;3.15;;;0.57;;
66802;SDS011;53705;49.860;8.744;2024-02-26T05:22:19;3.00;;;1.02;;
66802;SDS011;53705;49.860;8.744;2024-02-26T05:24:47;2.53;;;0.90;;
66802;SDS011;53705;49.860;8.744;2024-02-26T05:27:15;3.22;;;0.88;;
66802;SDS011;53705;49.860;8.744;2024-02-26T05:29:42;2.92;;;0.88;;
66802;SDS011;53705;49.860;8.744;2024-02-26T05:32:11;3.35;;;1.08;;
66802;SDS011;53705;49.860;8.744;2024-02-26T05:34:39;2.22;;;0.95;;
66802;SDS011;53705;49.860;8.744;2024-02-26T05:37:08;2.15;;;1.00;;
66802;SDS011;53705;49.860;8.744;2024-02-26T05:39:35;2.78;;;1.17;;
66802;SDS011;53705;49.860;8.744;2024-02-26T05:42:03;3.75;;;0.88;;
66802;SDS011;53705;49.860;8.744;2024-02-26T05:44:31;4.82;;;1.58;;
66802;SDS011;53705;49.860;8.744;2024-02-26T05:46:58;3.80;;;1.67;;
66802;SDS011;53705;49.860;8.744;2024-02-26T05:49:30;3.38;;;1.17;;
66802;SDS011;53705;49.860;8.744;2024-02-26T05:51:59;3.47;;;1.08;;
66802;SDS011;53705;49.860;8.744;2024-02-26T05:54:26;10.80;;;1.80;;
66802;SDS011;53705;49.860;8.744;2024-02-26T05:56:54;3.42;;;1.63;;
66802;SDS011;53705;49.860;8.744;2024-02-26T05:59:22;4.15;;;2.13;;
66802;SDS011;53705;49.860;8.744;2024-02-26T06:01:50;2.97;;;1.25;;
66802;SDS011;53705;49.860;8.744;2024-02-26T06:04:18;3.58;;;1.05;;
66802;SDS011;53705;49.860;8.744;2024-02-26T06:06:47;3.85;;;1.65;;
66802;SDS011;53705;49.860;8.744;2024-02-26T06:09:16;6.30;;;2.05;;
66802;SDS011;53705;49.860;8.744;2024-02-26T06:11:44;5.25;;;1.83;;
66802;SDS011;53705;49.860;8.744;2024-02-26T06:14:12;5.53;;;1.40;;
66802;SDS011;53705;49.860;8.744;2024-02-26T06:16:44;7.22;;;2.28;;
66802;SDS011;53705;49.860;8.744;2024-02-26T06:19:12;6.68;;;2.30;;
66802;SDS011;53705;49.860;8.744;2024-02-26T06:21:40;5.15;;;2.22;;
66802;SDS011;53705;49.860;8.744;2024-02-26T06:24:09;5.15;;;1.67;;
66802;SDS011;53705;49.860;8.744;2024-02-26T06:26:37;4.63;;;1.80;;
66802;SDS011;53705;49.860;8.744;2024-02-26T06:29:05;5.70;;;1.48;;
66802;SDS011;53705;49.860;8.744;2024-02-26T06:31:33;4.95;;;1.75;;
66802;SDS011;53705;49.860;8.744;2024-02-26T06:34:00;5.65;;;2.22;;
66802;SDS011;53705;49.860;8.744;2024-02-26T06:36:28;5.70;;;1.92;;
66802;SDS011;53705;49.860;8.744;2024-02-26T06:38:58;5.72;;;2.47;;
66802;SDS011;53705;49.860;8.744;2024-02-26T06:41:27;5.05;;;1.58;;
66802;SDS011;53705;49.860;8.744;2024-02-26T06:43:56;5.65;;;2.40;;
66802;SDS011;53705;49.860;8.744;2024-02-26T06:46:24;6.30;;;2.17;;
66802;SDS011;53705;49.860;8.744;2024-02-26T06:48:52;5.78;;;2.13;;
66802;SDS011;53705;49.860;8.744;2024-02-26T06:51:21;5.80;;;1.88;;
66802;SDS011;53705;49.860;8.744;2024-02-26T06:53:49;11.02;;;2.83;;
66802;SDS011;53705;49.860;8.744;2024-02-26T06:56:17;5.88;;;1.58;;
66802;SDS011;53705;49.860;8.744;2024-02-26T06:58:47;8.95;;;2.35;;
66802;SDS011;53705;49.860;8.744;2024-02-26T07:01:15;7.63;;;2.97;;
66802;SDS011;53705;49.860;8.744;2024-02-26T07:03:42;5.63;;;1.63;;
66802;SDS011;53705;49.860;8.744;2024-02-26T07:06:10;5.95;;;2.28;;
66802;SDS011;53705;49.860;8.744;2024-02-26T07:08:39;6.68;;;2.45;;
66802;SDS011;53705;49.860;8.744;2024-02-26T07:11:08;6.35;;;2.58;;
66802;SDS011;53705;49.860;8.744;2024-02-26T07:13:36;9.80;;;2.22;;
66802;SDS011;53705;49.860;8.744;2024-02-26T07:16:08;6.32;;;2.88;;
66802;SDS011;53705;49.860;8.744;2024-02-26T07:18:36;4.85;;;2.03;;
66802;SDS011;53705;49.860;8.744;2024-02-26T07:21:04;7.53;;;3.42;;
66802;SDS011;53705;49.860;8.744;2024-02-26T07:23:32;7.75;;;2.83;;
66802;SDS011;53705;49.860;8.744;2024-02-26T07:26:00;6.00;;;2.17;;
66802;SDS011;53705;49.860;8.744;2024-02-26T07:28:27;5.63;;;2.45;;
66802;SDS011;53705;49.860;8.744;2024-02-26T07:30:55;5.80;;;1.75;;
66802;SDS011;53705;49.860;8.744;2024-02-26T07:33:25;8.57;;;2.78;;
66802;SDS011;53705;49.860;8.744;2024-02-26T07:35:52;5.82;;;1.98;;
66802;SDS011;53705;49.860;8.744;2024-02-26T07:38:21;7.30;;;1.55;;
66802;SDS011;53705;49.860;8.744;2024-02-26T07:43:35;6.85;;;2.13;;
66802;SDS011;53705;49.860;8.744;2024-02-26T07:46:02;8.05;;;2.70;;
66802;SDS011;53705;49.860;8.744;2024-02-26T07:48:32;9.77;;;3.17;;
66802;SDS011;53705;49.860;8.744;2024-02-26T07:51:00;4.75;;;2.25;;
66802;SDS011;53705;49.860;8.744;2024-02-26T07:53:30;5.78;;;1.85;;
66802;SDS011;53705;49.860;8.744;2024-02-26T07:55:58;6.00;;;3.22;;
66802;SDS011;53705;49.860;8.744;2024-02-26T07:58:25;9.20;;;2.95;;
66802;SDS011;53705;49.860;8.744;2024-02-26T08:00:53;6.45;;;2.88;;
66802;SDS011;53705;49.860;8.744;2024-02-26T08:03:21;9.35;;;3.10;;
66802;SDS011;53705;49.860;8.744;2024-02-26T08:05:51;6.13;;;2.97;;
66802;SDS011;53705;49.860;8.744;2024-02-26T08:08:19;7.53;;;2.40;;
66802;SDS011;53705;49.860;8.744;2024-02-26T08:10:47;5.32;;;2.33;;
66802;SDS011;53705;49.860;8.744;2024-02-26T08:13:14;4.93;;;2.97;;
66802;SDS011;53705;49.860;8.744;2024-02-26T08:15:42;9.70;;;3.20;;
66802;SDS011;53705;49.860;8.744;2024-02-26T08:18:10;4.63;;;2.35;;
66802;SDS011;53705;49.860;8.744;2024-02-26T08:20:38;4.55;;;1.50;;
66802;SDS011;53705;49.860;8.744;2024-02-26T08:23:07;6.05;;;2.30;;
66802;SDS011;53705;49.860;8.744;2024-02-26T08:25:35;8.85;;;2.70;;
66802;SDS011;53705;49.860;8.744;2024-02-26T08:28:03;5.50;;;2.20;;
66802;SDS011;53705;49.860;8.744;2024-02-26T08:30:32;4.70;;;2.20;;
66802;SDS011;53705;49.860;8.744;2024-02-26T08:33:00;7.32;;;2.72;;
66802;SDS011;53705;49.860;8.744;2024-02-26T08:35:28;3.83;;;1.52;;
66802;SDS011;53705;49.860;8.744;2024-02-26T08:37:56;5.47;;;2.70;;
66802;SDS011;53705;49.860;8.744;2024-02-26T08:40:26;6.93;;;1.98;;
66802;SDS011;53705;49.860;8.744;2024-02-26T08:42:54;7.80;;;2.10;;
66802;SDS011;53705;49.860;8.744;2024-02-26T08:45:22;6.20;;;2.33;;
66802;SDS011;53705;49.860;8.744;2024-02-26T08:47:53;6.13;;;1.98;;
66802;SDS011;53705;49.860;8.744;2024-02-26T08:50:21;6.40;;;2.58;;
66802;SDS011;53705;49.860;8.744;2024-02-26T08:52:48;6.28;;;2.35;;
66802;SDS011;53705;49.860;8.744;2024-02-26T08:55:17;5.45;;;1.58;;
66802;SDS011;53705;49.860;8.744;2024-02-26T08:57:46;4.47;;;1.65;;
66802;SDS011;53705;49.860;8.744;2024-02-26T09:00:15;6.05;;;2.88;;
66802;SDS011;53705;49.860;8.744;2024-02-26T09:02:44;6.65;;;2.03;;
66802;SDS011;53705;49.860;8.744;2024-02-26T09:05:12;9.02;;;3.65;;
66802;SDS011;53705;49.860;8.744;2024-02-26T09:07:40;5.93;;;2.65;;
66802;SDS011;53705;49.860;8.744;2024-02-26T09:10:08;6.25;;;2.63;;
66802;SDS011;53705;49.860;8.744;2024-02-26T09:12:37;6.15;;;2.03;;
66802;SDS011;53705;49.860;8.744;2024-02-26T09:15:08;6.70;;;2.00;;
66802;SDS011;53705;49.860;8.744;2024-02-26T09:17:36;4.45;;;1.58;;
66802;SDS011;53705;49.860;8.744;2024-02-26T09:20:04;6.80;;;2.80;;
66802;SDS011;53705;49.860;8.744;2024-02-26T09:22:32;7.05;;;2.13;;
66802;SDS011;53705;49.860;8.744;2024-02-26T09:25:04;10.68;;;2.35;;
66802;SDS011;53705;49.860;8.744;2024-02-26T09:27:32;5.35;;;1.55;;
66802;SDS011;53705;49.860;8.744;2024-02-26T09:29:59;6.28;;;2.67;;
66802;SDS011;53705;49.860;8.744;2024-02-26T09:32:30;3.90;;;1.75;;
66802;SDS011;53705;49.860;8.744;2024-02-26T09:34:58;7.97;;;2.42;;
66802;SDS011;53705;49.860;8.744;2024-02-26T09:37:28;7.00;;;2.65;;
66802;SDS011;53705;49.860;8.744;2024-02-26T09:39:56;6.57;;;1.90;;
66802;SDS011;53705;49.860;8.744;2024-02-26T09:42:25;4.25;;;1.10;;
66802;SDS011;53705;49.860;8.744;2024-02-26T09:44:54;4.72;;;2.25;;
66802;SDS011;53705;49.860;8.744;2024-02-26T09:47:22;6.43;;;1.95;;
66802;SDS011;53705;49.860;8.744;2024-02-26T09:49:52;4.47;;;1.38;;
66802;SDS011;53705;49.860;8.744;2024-02-26T09:52:20;6.30;;;1.80;;
66802;SDS011;53705;49.860;8.744;2024-02-26T09:54:49;5.90;;;1.75;;
66802;SDS011;53705;49.860;8.744;2024-02-26T09:57:17;4.00;;;1.23;;
66802;SDS011;53705;49.860;8.744;2024-02-26T09:59:44;5.95;;;2.00;;
66802;SDS011;53705;49.860;8.744;2024-02-26T10:02:14;5.28;;;1.55;;
66802;SDS011;53705;49.860;8.744;2024-02-26T10:04:42;3.92;;;2.15;;
66802;SDS011;53705;49.860;8.744;2024-02-26T10:09:45;4.13;;;2.05;;
66802;SDS011;53705;49.860;8.744;2024-02-26T10:12:12;5.05;;;2.13;;
66802;SDS011;53705;49.860;8.744;2024-02-26T10:14:42;7.53;;;1.98;;
66802;SDS011;53705;49.860;8.744;2024-02-26T10:17:10;6.10;;;1.88;;
66802;SDS011;53705;49.860;8.744;2024-02-26T10:19:38;5.15;;;1.63;;
66802;SDS011;53705;49.860;8.744;2024-02-26T10:22:06;5.00;;;2.10;;
66802;SDS011;53705;49.860;8.744;2024-02-26T10:24:34;5.88;;;2.00;;
66802;SDS011;53705;49.860;8.744;2024-02-26T10:27:04;7.13;;;2.67;;
66802;SDS011;53705;49.860;8.744;2024-02-26T10:29:32;5.30;;;2.22;;
66802;SDS011;53705;49.860;8.744;2024-02-26T10:32:00;5.25;;;2.08;;
66802;SDS011;53705;49.860;8.744;2024-02-26T10:34:28;5.72;;;2.08;;
66802;SDS011;53705;49.860;8.744;2024-02-26T10:36:56;4.68;;;1.92;;
66802;SDS011;53705;49.860;8.744;2024-02-26T10:39:25;6.03;;;2.13;;
66802;SDS011;53705;49.860;8.744;2024-02-26T10:41:53;5.82;;;2.08;;
66802;SDS011;53705;49.860;8.744;2024-02-26T10:44:22;7.28;;;2.17;;
66802;SDS011;53705;49.860;8.744;2024-02-26T10:46:50;5.78;;;2.25;;
66802;SDS011;53705;49.860;8.744;2024-02-26T10:49:19;5.10;;;2.05;;
66802;SDS011;53705;49.860;8.744;2024-02-26T10:51:50;6.13;;;2.10;;
66802;SDS011;53705;49.860;8.744;2024-02-26T10:54:26;6.93;;;2.03;;
66802;SDS011;53705;49.860;8.744;2024-02-26T10:56:55;3.92;;;1.30;;
66802;SDS011;53705;49.860;8.744;2024-02-26T10:59:25;5.63;;;0.98;;
66802;SDS011;53705;49.860;8.744;2024-02-26T11:01:53;4.93;;;1.75;;
66802;SDS011;53705;49.860;8.744;2024-02-26T11:04:24;4.45;;;1.40;;
66802;SDS011;53705;49.860;8.744;2024-02-26T11:06:54;4.03;;;1.40;;
66802;SDS011;53705;49.860;8.744;2024-02-26T11:09:24;4.15;;;1.50;;
66802;SDS011;53705;49.860;8.744;2024-02-26T11:11:53;6.15;;;1.27;;
66802;SDS011;53705;49.860;8.744;2024-02-26T11:14:22;5.93;;;1.88;;
66802;SDS011;53705;49.860;8.744;2024-02-26T11:16:54;5.78;;;1.58;;
66802;SDS011;53705;49.860;8.744;2024-02-26T11:19:21;4.43;;;1.50;;
66802;SDS011;53705;49.860;8.744;2024-02-26T11:21:49;4.75;;;1.35;;
66802;SDS011;53705;49.860;8.744;2024-02-26T11:26:57;5.15;;;1.55;;
66802;SDS011;53705;49.860;8.744;2024-02-26T11:29:33;4.18;;;1.30;;
66802;SDS011;53705;49.860;8.744;2024-02-26T11:32:05;5.45;;;1.10;;
66802;SDS011;53705;49.860;8.744;2024-02-26T11:34:33;6.43;;;1.48;;
66802;SDS011;53705;49.860;8.744;2024-02-26T11:37:08;12.05;;;1.35;;
66802;SDS011;53705;49.860;8.744;2024-02-26T11:39:36;4.63;;;2.13;;
66802;SDS011;53705;49.860;8.744;2024-02-26T11:42:05;6.40;;;1.35;;
66802;SDS011;53705;49.860;8.744;2024-02-26T11:44:35;4.97;;;0.73;;
66802;SDS011;53705;49.860;8.744;2024-02-26T11:47:11;4.25;;;1.20;;
66802;SDS011;53705;49.860;8.744;2024-02-26T11:49:39;5.43;;;2.42;;
66802;SDS011;53705;49.860;8.744;2024-02-26T11:52:07;4.65;;;2.20;;
66802;SDS011;53705;49.860;8.744;2024-02-26T11:54:39;3.05;;;1.35;;
66802;SDS011;53705;49.860;8.744;2024-02-26T11:57:23;5.45;;;1.92;;
66802;SDS011;53705;49.860;8.744;2024-02-26T11:59:51;6.88;;;2.10;;
66802;SDS011;53705;49.860;8.744;2024-02-26T12:05:06;3.88;;;1.67;;
66802;SDS011;53705;49.860;8.744;2024-02-26T12:07:34;5.85;;;2.95;;
66802;SDS011;53705;49.860;8.744;2024-02-26T12:10:16;5.90;;;2.40;;
66802;SDS011;53705;49.860;8.744;2024-02-26T12:12:44;5.47;;;2.13;;
66802;SDS011;53705;49.860;8.744;2024-02-26T12:15:12;5.35;;;2.33;;
66802;SDS011;53705;49.860;8.744;2024-02-26T12:17:42;4.35;;;1.70;;
66802;SDS011;53705;49.860;8.744;2024-02-26T12:20:17;6.60;;;1.92;;
66802;SDS011;53705;49.860;8.744;2024-02-26T12:22:46;6.00;;;1.38;;
66802;SDS011;53705;49.860;8.744;2024-02-26T12:25:14;5.38;;;1.33;;
66802;SDS011;53705;49.860;8.744;2024-02-26T12:27:42;5.80;;;1.92;;
66802;SDS011;53705;49.860;8.744;2024-02-26T12:30:10;5.85;;;2.33;;
66802;SDS011;53705;49.860;8.744;2024-02-26T12:32:39;5.90;;;1.75;;
66802;SDS011;53705;49.860;8.744;2024-02-26T12:35:07;4.22;;;1.98;;
66802;SDS011;53705;49.860;8.744;2024-02-26T12:37:39;6.30;;;1.30;;
66802;SDS011;53705;49.860;8.744;2024-02-26T12:40:10;5.25;;;2.30;;
66802;SDS011;53705;49.860;8.744;2024-02-26T12:42:38;4.57;;;1.98;;
66802;SDS011;53705;49.860;8.744;2024-02-26T12:45:07;5.25;;;1.88;;
66802;SDS011;53705;49.860;8.744;2024-02-26T12:47:36;5.43;;;1.50;;
66802;SDS011;53705;49.860;8.744;2024-02-26T12:50:18;4.25;;;2.00;;
66802;SDS011;53705;49.860;8.744;2024-02-26T12:52:50;5.25;;;1.15;;
66802;SDS011;53705;49.860;8.744;2024-02-26T12:55:19;4.97;;;1.67;;
66802;SDS011;53705;49.860;8.744;2024-02-26T12:57:47;8.25;;;1.30;;
66802;SDS011;53705;49.860;8.744;2024-02-26T13:00:18;5.18;;;1.40;;
66802;SDS011;53705;49.860;8.744;2024-02-26T13:02:48;6.47;;;2.10;;
66802;SDS011;53705;49.860;8.744;2024-02-26T13:05:17;7.93;;;2.22;;
66802;SDS011;53705;49.860;8.744;2024-02-26T13:07:48;7.32;;;2.40;;
66802;SDS011;53705;49.860;8.744;2024-02-26T13:10:16;23.40;;;7.03;;
66802;SDS011;53705;49.860;8.744;2024-02-26T13:12:45;20.73;;;7.03;;
66802;SDS011;53705;49.860;8.744;2024-02-26T13:15:16;6.60;;;2.38;;
66802;SDS011;53705;49.860;8.744;2024-02-26T13:17:45;4.38;;;1.50;;
66802;SDS011;53705;49.860;8.744;2024-02-26T13:20:13;6.50;;;3.10;;
66802;SDS011;53705;49.860;8.744;2024-02-26T13:22:41;7.53;;;2.75;;
66802;SDS011;53705;49.860;8.744;2024-02-26T13:25:10;6.65;;;2.25;;
66802;SDS011;53705;49.860;8.744;2024-02-26T13:27:38;12.82;;;4.40;;
66802;SDS011;53705;49.860;8.744;2024-02-26T13:30:08;6.78;;;1.98;;
66802;SDS011;53705;49.860;8.744;2024-02-26T13:32:37;6.63;;;2.65;;
66802;SDS011;53705;49.860;8.744;2024-02-26T13:35:05;6.32;;;2.03;;
66802;SDS011;53705;49.860;8.744;2024-02-26T13:37:34;4.20;;;1.45;;
66802;SDS011;53705;49.860;8.744;2024-02-26T13:40:04;5.05;;;1.60;;
66802;SDS011;53705;49.860;8.744;2024-02-26T13:42:33;4.60;;;1.52;;
66802;SDS011;53705;49.860;8.744;2024-02-26T13:45:01;4.00;;;1.45;;
66802;SDS011;53705;49.860;8.744;2024-02-26T13:47:29;5.15;;;1.63;;
66802;SDS011;53705;49.860;8.744;2024-02-26T13:49:59;4.45;;;1.58;;
66802;SDS011;53705;49.860;8.744;2024-02-26T13:52:28;5.28;;;1.65;;
66802;SDS011;53705;49.860;8.744;2024-02-26T13:54:59;4.07;;;1.35;;
66802;SDS011;53705;49.860;8.744;2024-02-26T13:57:27;4.60;;;0.98;;
66802;SDS011;53705;49.860;8.744;2024-02-26T13:59:57;7.72;;;2.40;;
66802;SDS011;53705;49.860;8.744;2024-02-26T14:02:26;3.53;;;1.25;;
66802;SDS011;53705;49.860;8.744;2024-02-26T14:04:54;3.95;;;1.45;;
66802;SDS011;53705;49.860;8.744;2024-02-26T14:07:21;6.03;;;2.38;;
66802;SDS011;53705;49.860;8.744;2024-02-26T14:09:49;5.13;;;1.73;;
66802;SDS011;53705;49.860;8.744;2024-02-26T14:12:18;5.95;;;1.60;;
66802;SDS011;53705;49.860;8.744;2024-02-26T14:14:50;5.55;;;2.67;;
66802;SDS011;53705;49.860;8.744;2024-02-26T14:17:21;5.05;;;1.90;;
66802;SDS011;53705;49.860;8.744;2024-02-26T14:19:49;3.75;;;1.30;;
66802;SDS011;53705;49.860;8.744;2024-02-26T14:22:16;6.95;;;1.80;;
66802;SDS011;53705;49.860;8.744;2024-02-26T14:24:44;5.78;;;1.50;;
66802;SDS011;53705;49.860;8.744;2024-02-26T14:27:13;4.75;;;1.40;;
66802;SDS011;53705;49.860;8.744;2024-02-26T14:29:42;3.90;;;1.15;;
66802;SDS011;53705;49.860;8.744;2024-02-26T14:32:10;5.65;;;1.77;;
66802;SDS011;53705;49.860;8.744;2024-02-26T14:34:39;5.00;;;1.10;;
66802;SDS011;53705;49.860;8.744;2024-02-26T14:37:08;7.45;;;1.83;;
66802;SDS011;53705;49.860;8.744;2024-02-26T14:39:36;4.88;;;1.67;;
66802;SDS011;53705;49.860;8.744;2024-02-26T14:42:05;5.65;;;2.17;;
66802;SDS011;53705;49.860;8.744;2024-02-26T14:44:33;5.15;;;1.70;;
66802;SDS011;53705;49.860;8.744;2024-02-26T14:47:01;2.70;;;0.77;;
66802;SDS011;53705;49.860;8.744;2024-02-26T14:49:29;4.72;;;1.83;;
66802;SDS011;53705;49.860;8.744;2024-02-26T14:51:59;4.53;;;1.00;;
66802;SDS011;53705;49.860;8.744;2024-02-26T14:54:30;3.65;;;1.58;;
66802;SDS011;53705;49.860;8.744;2024-02-26T14:56:59;5.80;;;2.58;;
66802;SDS011;53705;49.860;8.744;2024-02-26T14:59:27;3.83;;;0.80;;
66802;SDS011;53705;49.860;8.744;2024-02-26T15:01:55;4.25;;;1.75;;
66802;SDS011;53705;49.860;8.744;2024-02-26T15:04:23;3.63;;;1.38;;
66802;SDS011;53705;49.860;8.744;2024-02-26T15:06:50;4.40;;;1.38;;
66802;SDS011;53705;49.860;8.744;2024-02-26T15:09:20;3.78;;;1.23;;
66802;SDS011;53705;49.860;8.744;2024-02-26T15:11:47;3.38;;;0.98;;